sensor_id;sensor_type;location;lat;lon;timestamp;temperature;humidity
64796;DHT22;51229;51.980;6.722;2023-05-07T00:00:09;13.60;99.90
64796;DHT22;51229;51.980;6.722;2023-05-07T00:02:35;13.80;99.90
64796;DHT22;51229;51.980;6.722;2023-05-07T00:05:01;13.80;99.90
64796;DHT22;51229;51.980;6.722;2023-05-07T00:07:28;13.80;99.90
64796;DHT22;51229;51.980;6.722;2023-05-07T00:09:53;13.90;99.90
64796;DHT22;51229;51.980;6.722;2023-05-07T00:12:19;13.80;99.90
64796;DHT22;51229;51.980;6.722;2023-05-07T00:14:45;14.00;99.90
64796;DHT22;51229;51.980;6.722;2023-05-07T00:17:11;13.50;99.90
64796;DHT22;51229;51.980;6.722;2023-05-07T00:19:36;13.60;99.90
64796;DHT22;51229;51.980;6.722;2023-05-07T00:22:02;13.70;99.90
64796;DHT22;51229;51.980;6.722;2023-05-07T00:24:28;13.80;99.90
64796;DHT22;51229;51.980;6.722;2023-05-07T00:26:54;13.70;99.90
64796;DHT22;51229;51.980;6.722;2023-05-07T00:29:19;13.30;99.90
64796;DHT22;51229;51.980;6.722;2023-05-07T00:31:45;13.40;99.90
64796;DHT22;51229;51.980;6.722;2023-05-07T00:34:11;13.60;99.90
64796;DHT22;51229;51.980;6.722;2023-05-07T00:36:37;13.40;99.90
64796;DHT22;51229;51.980;6.722;2023-05-07T00:39:02;13.50;99.90
64796;DHT22;51229;51.980;6.722;2023-05-07T00:41:29;13.60;99.90
64796;DHT22;51229;51.980;6.722;2023-05-07T00:43:56;13.40;99.90
64796;DHT22;51229;51.980;6.722;2023-05-07T00:46:23;13.50;99.90
64796;DHT22;51229;51.980;6.722;2023-05-07T00:48:50;13.50;99.90
64796;DHT22;51229;51.980;6.722;2023-05-07T00:51:17;13.50;99.90
64796;DHT22;51229;51.980;6.722;2023-05-07T00:53:43;13.50;99.90
64796;DHT22;51229;51.980;6.722;2023-05-07T00:56:09;13.40;99.90
64796;DHT22;51229;51.980;6.722;2023-05-07T00:58:35;13.30;99.90
64796;DHT22;51229;51.980;6.722;2023-05-07T01:01:01;13.10;99.90
64796;DHT22;51229;51.980;6.722;2023-05-07T01:03:27;13.20;99.90
64796;DHT22;51229;51.980;6.722;2023-05-07T01:05:53;13.10;99.90
64796;DHT22;51229;51.980;6.722;2023-05-07T01:08:22;13.20;99.90
64796;DHT22;51229;51.980;6.722;2023-05-07T01:10:50;12.90;99.90
64796;DHT22;51229;51.980;6.722;2023-05-07T01:13:17;12.60;99.90
64796;DHT22;51229;51.980;6.722;2023-05-07T01:15:44;12.50;99.90
64796;DHT22;51229;51.980;6.722;2023-05-07T01:18:10;12.40;99.90
64796;DHT22;51229;51.980;6.722;2023-05-07T01:20:36;12.20;99.90
64796;DHT22;51229;51.980;6.722;2023-05-07T01:23:03;12.30;99.90
64796;DHT22;51229;51.980;6.722;2023-05-07T01:25:29;12.30;99.90
64796;DHT22;51229;51.980;6.722;2023-05-07T01:27:58;12.40;99.90
64796;DHT22;51229;51.980;6.722;2023-05-07T01:30:30;12.70;99.90
64796;DHT22;51229;51.980;6.722;2023-05-07T01:33:06;12.40;99.90
64796;DHT22;51229;51.980;6.722;2023-05-07T01:35:40;12.50;99.90
64796;DHT22;51229;51.980;6.722;2023-05-07T01:38:08;12.50;99.90
64796;DHT22;51229;51.980;6.722;2023-05-07T01:40:34;12.60;99.90
64796;DHT22;51229;51.980;6.722;2023-05-07T01:43:02;12.60;99.90
64796;DHT22;51229;51.980;6.722;2023-05-07T01:45:28;12.40;99.90
64796;DHT22;51229;51.980;6.722;2023-05-07T01:47:55;12.80;99.90
64796;DHT22;51229;51.980;6.722;2023-05-07T01:50:21;12.80;99.90
64796;DHT22;51229;51.980;6.722;2023-05-07T01:52:47;12.70;99.90
64796;DHT22;51229;51.980;6.722;2023-05-07T01:55:15;12.30;99.90
64796;DHT22;51229;51.980;6.722;2023-05-07T01:57:40;12.00;99.90
64796;DHT22;51229;51.980;6.722;2023-05-07T02:00:07;12.10;99.90
64796;DHT22;51229;51.980;6.722;2023-05-07T02:02:41;12.40;99.90
64796;DHT22;51229;51.980;6.722;2023-05-07T02:05:11;12.30;99.90
64796;DHT22;51229;51.980;6.722;2023-05-07T02:07:38;12.40;99.90
64796;DHT22;51229;51.980;6.722;2023-05-07T02:10:05;12.60;99.90
64796;DHT22;51229;51.980;6.722;2023-05-07T02:12:31;12.60;99.90
64796;DHT22;51229;51.980;6.722;2023-05-07T02:14:57;12.60;99.90
64796;DHT22;51229;51.980;6.722;2023-05-07T02:17:23;12.60;99.90
64796;DHT22;51229;51.980;6.722;2023-05-07T02:19:48;12.70;99.90
64796;DHT22;51229;51.980;6.722;2023-05-07T02:22:14;12.70;99.90
64796;DHT22;51229;51.980;6.722;2023-05-07T02:24:41;12.80;99.90
64796;DHT22;51229;51.980;6.722;2023-05-07T02:27:06;12.70;99.90
64796;DHT22;51229;51.980;6.722;2023-05-07T02:29:32;12.60;99.90
64796;DHT22;51229;51.980;6.722;2023-05-07T02:31:58;12.10;99.90
64796;DHT22;51229;51.980;6.722;2023-05-07T02:34:24;12.40;99.90
64796;DHT22;51229;51.980;6.722;2023-05-07T02:36:50;12.20;99.90
64796;DHT22;51229;51.980;6.722;2023-05-07T02:39:20;12.00;99.90
64796;DHT22;51229;51.980;6.722;2023-05-07T02:41:46;12.30;99.90
64796;DHT22;51229;51.980;6.722;2023-05-07T02:44:11;12.40;99.90
64796;DHT22;51229;51.980;6.722;2023-05-07T02:46:38;12.20;99.90
64796;DHT22;51229;51.980;6.722;2023-05-07T02:49:08;12.40;99.90
64796;DHT22;51229;51.980;6.722;2023-05-07T02:51:34;12.50;99.90
64796;DHT22;51229;51.980;6.722;2023-05-07T02:54:02;12.50;99.90
64796;DHT22;51229;51.980;6.722;2023-05-07T02:56:29;12.30;99.90
64796;DHT22;51229;51.980;6.722;2023-05-07T02:58:55;12.30;99.90
64796;DHT22;51229;51.980;6.722;2023-05-07T03:01:25;12.20;99.90
64796;DHT22;51229;51.980;6.722;2023-05-07T03:04:01;12.00;99.90
64796;DHT22;51229;51.980;6.722;2023-05-07T03:06:27;11.80;99.90
64796;DHT22;51229;51.980;6.722;2023-05-07T03:08:52;11.70;99.90
64796;DHT22;51229;51.980;6.722;2023-05-07T03:11:18;11.80;99.90
64796;DHT22;51229;51.980;6.722;2023-05-07T03:13:44;11.80;99.90
64796;DHT22;51229;51.980;6.722;2023-05-07T03:16:10;12.10;99.90
64796;DHT22;51229;51.980;6.722;2023-05-07T03:18:36;12.30;99.90
64796;DHT22;51229;51.980;6.722;2023-05-07T03:21:02;12.20;99.90
64796;DHT22;51229;51.980;6.722;2023-05-07T03:23:28;12.10;99.90
64796;DHT22;51229;51.980;6.722;2023-05-07T03:25:53;12.10;99.90
64796;DHT22;51229;51.980;6.722;2023-05-07T03:28:20;11.80;99.90
64796;DHT22;51229;51.980;6.722;2023-05-07T03:30:51;12.10;99.90
64796;DHT22;51229;51.980;6.722;2023-05-07T03:33:17;11.90;99.90
64796;DHT22;51229;51.980;6.722;2023-05-07T03:35:43;11.70;99.90
64796;DHT22;51229;51.980;6.722;2023-05-07T03:38:09;11.80;99.90
64796;DHT22;51229;51.980;6.722;2023-05-07T03:40:36;11.80;99.90
64796;DHT22;51229;51.980;6.722;2023-05-07T03:43:04;11.40;99.90
64796;DHT22;51229;51.980;6.722;2023-05-07T03:45:31;11.60;99.90
64796;DHT22;51229;51.980;6.722;2023-05-07T03:48:11;11.70;99.90
64796;DHT22;51229;51.980;6.722;2023-05-07T03:50:37;11.80;99.90
64796;DHT22;51229;51.980;6.722;2023-05-07T03:53:03;11.80;99.90
64796;DHT22;51229;51.980;6.722;2023-05-07T03:55:31;11.90;99.90
64796;DHT22;51229;51.980;6.722;2023-05-07T03:57:59;11.70;99.90
64796;DHT22;51229;51.980;6.722;2023-05-07T04:00:26;11.30;99.90
64796;DHT22;51229;51.980;6.722;2023-05-07T04:02:52;11.40;99.90
64796;DHT22;51229;51.980;6.722;2023-05-07T04:05:25;11.50;99.90
64796;DHT22;51229;51.980;6.722;2023-05-07T04:07:55;11.70;99.90
64796;DHT22;51229;51.980;6.722;2023-05-07T04:10:29;11.90;99.90
64796;DHT22;51229;51.980;6.722;2023-05-07T04:12:57;11.60;99.90
64796;DHT22;51229;51.980;6.722;2023-05-07T04:15:24;11.30;99.90
64796;DHT22;51229;51.980;6.722;2023-05-07T04:17:50;11.00;99.90
64796;DHT22;51229;51.980;6.722;2023-05-07T04:20:19;10.90;99.90
64796;DHT22;51229;51.980;6.722;2023-05-07T04:22:50;11.00;99.90
64796;DHT22;51229;51.980;6.722;2023-05-07T04:25:16;11.00;99.90
64796;DHT22;51229;51.980;6.722;2023-05-07T04:27:42;11.10;99.90
64796;DHT22;51229;51.980;6.722;2023-05-07T04:30:08;11.20;99.90
64796;DHT22;51229;51.980;6.722;2023-05-07T04:32:38;11.00;99.90
64796;DHT22;51229;51.980;6.722;2023-05-07T04:35:04;11.20;99.90
64796;DHT22;51229;51.980;6.722;2023-05-07T04:37:32;11.60;99.90
64796;DHT22;51229;51.980;6.722;2023-05-07T04:39:59;11.70;99.90
64796;DHT22;51229;51.980;6.722;2023-05-07T04:42:26;11.80;99.90
64796;DHT22;51229;51.980;6.722;2023-05-07T04:44:53;11.20;99.90
64796;DHT22;51229;51.980;6.722;2023-05-07T04:47:20;10.80;99.90
64796;DHT22;51229;51.980;6.722;2023-05-07T04:49:46;11.30;99.90
64796;DHT22;51229;51.980;6.722;2023-05-07T04:52:12;11.60;99.90
64796;DHT22;51229;51.980;6.722;2023-05-07T04:54:38;11.40;99.90
64796;DHT22;51229;51.980;6.722;2023-05-07T04:57:04;11.10;99.90
64796;DHT22;51229;51.980;6.722;2023-05-07T04:59:31;11.30;99.90
64796;DHT22;51229;51.980;6.722;2023-05-07T05:01:57;11.30;99.90
64796;DHT22;51229;51.980;6.722;2023-05-07T05:04:24;11.40;99.90
64796;DHT22;51229;51.980;6.722;2023-05-07T05:06:50;11.20;99.90
64796;DHT22;51229;51.980;6.722;2023-05-07T05:09:17;11.30;99.90
64796;DHT22;51229;51.980;6.722;2023-05-07T05:11:43;11.20;99.90
64796;DHT22;51229;51.980;6.722;2023-05-07T05:14:09;11.40;99.90
64796;DHT22;51229;51.980;6.722;2023-05-07T05:16:35;11.70;99.90
64796;DHT22;51229;51.980;6.722;2023-05-07T05:19:02;11.50;99.90
64796;DHT22;51229;51.980;6.722;2023-05-07T05:21:29;11.10;99.90
64796;DHT22;51229;51.980;6.722;2023-05-07T05:23:59;11.20;99.90
64796;DHT22;51229;51.980;6.722;2023-05-07T05:26:25;11.30;99.90
64796;DHT22;51229;51.980;6.722;2023-05-07T05:28:51;11.50;99.90
64796;DHT22;51229;51.980;6.722;2023-05-07T05:31:20;11.40;99.90
64796;DHT22;51229;51.980;6.722;2023-05-07T05:33:48;11.50;99.90
64796;DHT22;51229;51.980;6.722;2023-05-07T05:36:14;11.60;99.90
64796;DHT22;51229;51.980;6.722;2023-05-07T05:38:40;11.50;99.90
64796;DHT22;51229;51.980;6.722;2023-05-07T05:41:07;11.20;99.90
64796;DHT22;51229;51.980;6.722;2023-05-07T05:43:34;11.40;99.90
64796;DHT22;51229;51.980;6.722;2023-05-07T05:46:00;11.50;99.90
64796;DHT22;51229;51.980;6.722;2023-05-07T05:48:26;11.20;99.90
64796;DHT22;51229;51.980;6.722;2023-05-07T05:50:52;11.30;99.90
64796;DHT22;51229;51.980;6.722;2023-05-07T05:53:18;11.40;99.90
64796;DHT22;51229;51.980;6.722;2023-05-07T05:55:45;11.40;99.90
64796;DHT22;51229;51.980;6.722;2023-05-07T05:58:11;11.30;99.90
64796;DHT22;51229;51.980;6.722;2023-05-07T06:00:42;11.30;99.90
64796;DHT22;51229;51.980;6.722;2023-05-07T06:03:07;11.50;99.90
64796;DHT22;51229;51.980;6.722;2023-05-07T06:05:34;11.60;99.90
64796;DHT22;51229;51.980;6.722;2023-05-07T06:08:00;11.70;99.90
64796;DHT22;51229;51.980;6.722;2023-05-07T06:10:30;11.80;99.90
64796;DHT22;51229;51.980;6.722;2023-05-07T06:12:57;11.80;99.90
64796;DHT22;51229;51.980;6.722;2023-05-07T06:15:23;11.70;99.90
64796;DHT22;51229;51.980;6.722;2023-05-07T06:17:49;11.40;99.90
64796;DHT22;51229;51.980;6.722;2023-05-07T06:20:15;11.60;99.90
64796;DHT22;51229;51.980;6.722;2023-05-07T06:22:41;11.50;99.90
64796;DHT22;51229;51.980;6.722;2023-05-07T06:25:09;11.60;99.90
64796;DHT22;51229;51.980;6.722;2023-05-07T06:27:36;11.60;99.90
64796;DHT22;51229;51.980;6.722;2023-05-07T06:30:01;11.90;99.90
64796;DHT22;51229;51.980;6.722;2023-05-07T06:32:27;11.80;99.90
64796;DHT22;51229;51.980;6.722;2023-05-07T06:34:54;11.50;99.90
64796;DHT22;51229;51.980;6.722;2023-05-07T06:37:20;11.70;99.90
64796;DHT22;51229;51.980;6.722;2023-05-07T06:40:02;11.60;99.90
64796;DHT22;51229;51.980;6.722;2023-05-07T06:42:29;11.50;99.90
64796;DHT22;51229;51.980;6.722;2023-05-07T06:44:59;11.80;99.90
64796;DHT22;51229;51.980;6.722;2023-05-07T06:47:28;12.20;99.90
64796;DHT22;51229;51.980;6.722;2023-05-07T06:49:54;11.80;99.90
64796;DHT22;51229;51.980;6.722;2023-05-07T06:52:23;11.50;99.90
64796;DHT22;51229;51.980;6.722;2023-05-07T06:54:50;11.70;99.90
64796;DHT22;51229;51.980;6.722;2023-05-07T06:57:19;12.00;99.90
64796;DHT22;51229;51.980;6.722;2023-05-07T06:59:45;11.80;99.90
64796;DHT22;51229;51.980;6.722;2023-05-07T07:02:11;11.60;99.90
64796;DHT22;51229;51.980;6.722;2023-05-07T07:04:37;11.70;99.90
64796;DHT22;51229;51.980;6.722;2023-05-07T07:07:07;11.60;99.90
64796;DHT22;51229;51.980;6.722;2023-05-07T07:09:34;11.70;99.90
64796;DHT22;51229;51.980;6.722;2023-05-07T07:12:01;12.10;99.90
64796;DHT22;51229;51.980;6.722;2023-05-07T07:14:29;12.00;99.90
64796;DHT22;51229;51.980;6.722;2023-05-07T07:16:54;12.00;99.90
64796;DHT22;51229;51.980;6.722;2023-05-07T07:19:21;11.90;99.90
64796;DHT22;51229;51.980;6.722;2023-05-07T07:21:50;12.00;99.90
64796;DHT22;51229;51.980;6.722;2023-05-07T07:24:16;11.90;99.90
64796;DHT22;51229;51.980;6.722;2023-05-07T07:26:47;11.70;99.90
64796;DHT22;51229;51.980;6.722;2023-05-07T07:29:13;12.20;99.90
64796;DHT22;51229;51.980;6.722;2023-05-07T07:31:41;12.40;99.90
64796;DHT22;51229;51.980;6.722;2023-05-07T07:34:09;12.70;99.90
64796;DHT22;51229;51.980;6.722;2023-05-07T07:36:35;12.60;99.90
64796;DHT22;51229;51.980;6.722;2023-05-07T07:39:00;12.50;99.90
64796;DHT22;51229;51.980;6.722;2023-05-07T07:41:26;12.70;99.90
64796;DHT22;51229;51.980;6.722;2023-05-07T07:43:52;12.60;99.90
64796;DHT22;51229;51.980;6.722;2023-05-07T07:46:20;12.50;99.90
64796;DHT22;51229;51.980;6.722;2023-05-07T07:48:46;12.70;99.90
64796;DHT22;51229;51.980;6.722;2023-05-07T07:51:12;12.90;99.90
64796;DHT22;51229;51.980;6.722;2023-05-07T07:53:38;13.00;99.90
64796;DHT22;51229;51.980;6.722;2023-05-07T07:56:04;13.10;99.90
64796;DHT22;51229;51.980;6.722;2023-05-07T07:58:32;13.20;99.90
64796;DHT22;51229;51.980;6.722;2023-05-07T08:00:59;13.10;99.90
64796;DHT22;51229;51.980;6.722;2023-05-07T08:03:25;13.30;99.90
64796;DHT22;51229;51.980;6.722;2023-05-07T08:05:56;13.50;99.90
64796;DHT22;51229;51.980;6.722;2023-05-07T08:08:22;13.30;99.90
64796;DHT22;51229;51.980;6.722;2023-05-07T08:10:49;13.50;99.90
64796;DHT22;51229;51.980;6.722;2023-05-07T08:13:22;13.70;99.90
64796;DHT22;51229;51.980;6.722;2023-05-07T08:15:48;13.90;99.90
64796;DHT22;51229;51.980;6.722;2023-05-07T08:18:15;13.90;99.90
64796;DHT22;51229;51.980;6.722;2023-05-07T08:20:42;14.00;99.90
64796;DHT22;51229;51.980;6.722;2023-05-07T08:23:13;14.20;99.90
64796;DHT22;51229;51.980;6.722;2023-05-07T08:25:39;14.30;99.90
64796;DHT22;51229;51.980;6.722;2023-05-07T08:28:06;14.70;99.90
64796;DHT22;51229;51.980;6.722;2023-05-07T08:30:32;14.90;99.90
64796;DHT22;51229;51.980;6.722;2023-05-07T08:32:58;14.70;99.90
64796;DHT22;51229;51.980;6.722;2023-05-07T08:35:23;14.50;99.90
64796;DHT22;51229;51.980;6.722;2023-05-07T08:37:51;14.50;99.90
64796;DHT22;51229;51.980;6.722;2023-05-07T08:40:18;14.80;99.90
64796;DHT22;51229;51.980;6.722;2023-05-07T08:42:44;14.90;99.90
64796;DHT22;51229;51.980;6.722;2023-05-07T08:45:11;14.70;99.90
64796;DHT22;51229;51.980;6.722;2023-05-07T08:47:43;14.80;99.90
64796;DHT22;51229;51.980;6.722;2023-05-07T08:50:13;15.40;99.90
64796;DHT22;51229;51.980;6.722;2023-05-07T08:52:40;15.60;99.90
64796;DHT22;51229;51.980;6.722;2023-05-07T08:55:07;15.50;99.90
64796;DHT22;51229;51.980;6.722;2023-05-07T08:57:33;15.80;99.90
64796;DHT22;51229;51.980;6.722;2023-05-07T08:59:59;16.00;99.90
64796;DHT22;51229;51.980;6.722;2023-05-07T09:02:25;15.90;99.90
64796;DHT22;51229;51.980;6.722;2023-05-07T09:04:51;15.80;99.90
64796;DHT22;51229;51.980;6.722;2023-05-07T09:07:19;15.40;99.90
64796;DHT22;51229;51.980;6.722;2023-05-07T09:09:46;15.40;99.90
64796;DHT22;51229;51.980;6.722;2023-05-07T09:12:12;15.60;99.90
64796;DHT22;51229;51.980;6.722;2023-05-07T09:14:38;15.90;99.90
64796;DHT22;51229;51.980;6.722;2023-05-07T09:17:05;16.00;99.90
64796;DHT22;51229;51.980;6.722;2023-05-07T09:19:31;16.30;99.90
64796;DHT22;51229;51.980;6.722;2023-05-07T09:22:01;16.90;99.90
64796;DHT22;51229;51.980;6.722;2023-05-07T09:24:32;17.20;99.90
64796;DHT22;51229;51.980;6.722;2023-05-07T09:27:02;16.80;99.90
64796;DHT22;51229;51.980;6.722;2023-05-07T09:29:29;17.20;99.90
64796;DHT22;51229;51.980;6.722;2023-05-07T09:31:56;17.30;99.90
64796;DHT22;51229;51.980;6.722;2023-05-07T09:34:22;17.30;99.90
64796;DHT22;51229;51.980;6.722;2023-05-07T09:36:48;17.70;99.90
64796;DHT22;51229;51.980;6.722;2023-05-07T09:39:14;18.20;99.90
64796;DHT22;51229;51.980;6.722;2023-05-07T09:41:44;18.20;99.90
64796;DHT22;51229;51.980;6.722;2023-05-07T09:44:16;18.10;99.90
64796;DHT22;51229;51.980;6.722;2023-05-07T09:46:49;18.00;99.90
64796;DHT22;51229;51.980;6.722;2023-05-07T09:49:23;18.60;99.90
64796;DHT22;51229;51.980;6.722;2023-05-07T09:51:59;18.90;99.90
64796;DHT22;51229;51.980;6.722;2023-05-07T09:54:25;19.00;99.90
64796;DHT22;51229;51.980;6.722;2023-05-07T09:56:55;19.20;99.90
64796;DHT22;51229;51.980;6.722;2023-05-07T09:59:25;19.70;99.90
64796;DHT22;51229;51.980;6.722;2023-05-07T10:01:52;19.70;99.90
64796;DHT22;51229;51.980;6.722;2023-05-07T10:04:19;20.10;99.90
64796;DHT22;51229;51.980;6.722;2023-05-07T10:06:46;20.60;99.90
64796;DHT22;51229;51.980;6.722;2023-05-07T10:09:13;20.00;99.90
64796;DHT22;51229;51.980;6.722;2023-05-07T10:11:39;19.70;99.90
64796;DHT22;51229;51.980;6.722;2023-05-07T10:14:07;20.30;99.90
64796;DHT22;51229;51.980;6.722;2023-05-07T10:16:35;20.30;99.90
64796;DHT22;51229;51.980;6.722;2023-05-07T10:19:07;20.50;99.90
64796;DHT22;51229;51.980;6.722;2023-05-07T10:21:37;20.80;99.90
64796;DHT22;51229;51.980;6.722;2023-05-07T10:24:06;19.90;99.90
64796;DHT22;51229;51.980;6.722;2023-05-07T10:26:43;21.00;99.90
64796;DHT22;51229;51.980;6.722;2023-05-07T10:32:30;20.90;99.90
64796;DHT22;51229;51.980;6.722;2023-05-07T10:35:01;21.30;99.90
64796;DHT22;51229;51.980;6.722;2023-05-07T10:37:28;21.50;99.90
64796;DHT22;51229;51.980;6.722;2023-05-07T10:39:56;21.30;99.90
64796;DHT22;51229;51.980;6.722;2023-05-07T10:42:23;22.00;99.90
64796;DHT22;51229;51.980;6.722;2023-05-07T10:44:52;22.30;99.90
64796;DHT22;51229;51.980;6.722;2023-05-07T10:47:23;21.60;99.90
64796;DHT22;51229;51.980;6.722;2023-05-07T10:52:32;21.00;99.90
64796;DHT22;51229;51.980;6.722;2023-05-07T10:57:49;21.40;99.90
64796;DHT22;51229;51.980;6.722;2023-05-07T11:05:29;21.10;99.90
64796;DHT22;51229;51.980;6.722;2023-05-07T11:08:07;21.70;99.90
64796;DHT22;51229;51.980;6.722;2023-05-07T11:10:51;21.90;99.90
64796;DHT22;51229;51.980;6.722;2023-05-07T11:13:44;21.30;99.90
64796;DHT22;51229;51.980;6.722;2023-05-07T11:16:22;21.30;99.90
64796;DHT22;51229;51.980;6.722;2023-05-07T11:18:54;22.20;99.90
64796;DHT22;51229;51.980;6.722;2023-05-07T11:21:41;22.80;99.90
64796;DHT22;51229;51.980;6.722;2023-05-07T11:24:39;22.20;99.90
64796;DHT22;51229;51.980;6.722;2023-05-07T11:27:06;22.30;99.90
64796;DHT22;51229;51.980;6.722;2023-05-07T11:29:32;22.60;99.90
64796;DHT22;51229;51.980;6.722;2023-05-07T11:32:04;22.40;99.90
64796;DHT22;51229;51.980;6.722;2023-05-07T11:34:37;23.50;99.90
64796;DHT22;51229;51.980;6.722;2023-05-07T11:37:03;22.50;99.90
64796;DHT22;51229;51.980;6.722;2023-05-07T11:39:46;22.80;99.90
64796;DHT22;51229;51.980;6.722;2023-05-07T11:42:34;23.40;99.90
64796;DHT22;51229;51.980;6.722;2023-05-07T11:45:00;22.70;99.90
64796;DHT22;51229;51.980;6.722;2023-05-07T11:47:29;23.30;99.90
64796;DHT22;51229;51.980;6.722;2023-05-07T11:49:55;23.50;99.10
64796;DHT22;51229;51.980;6.722;2023-05-07T11:52:22;23.40;99.90
64796;DHT22;51229;51.980;6.722;2023-05-07T11:54:52;23.40;99.90
64796;DHT22;51229;51.980;6.722;2023-05-07T11:57:21;23.80;99.90
64796;DHT22;51229;51.980;6.722;2023-05-07T11:59:47;24.60;99.90
64796;DHT22;51229;51.980;6.722;2023-05-07T12:02:14;24.50;97.60
64796;DHT22;51229;51.980;6.722;2023-05-07T12:04:41;23.50;99.90
64796;DHT22;51229;51.980;6.722;2023-05-07T12:07:14;22.90;99.90
64796;DHT22;51229;51.980;6.722;2023-05-07T12:09:44;23.50;99.90
64796;DHT22;51229;51.980;6.722;2023-05-07T12:12:11;23.70;98.50
64796;DHT22;51229;51.980;6.722;2023-05-07T12:14:41;23.40;99.90
64796;DHT22;51229;51.980;6.722;2023-05-07T12:17:08;24.10;99.20
64796;DHT22;51229;51.980;6.722;2023-05-07T12:19:35;23.40;98.20
64796;DHT22;51229;51.980;6.722;2023-05-07T12:22:03;23.40;99.90
64796;DHT22;51229;51.980;6.722;2023-05-07T12:24:30;24.30;99.90
64796;DHT22;51229;51.980;6.722;2023-05-07T12:27:07;24.20;95.00
64796;DHT22;51229;51.980;6.722;2023-05-07T12:29:32;24.30;96.30
64796;DHT22;51229;51.980;6.722;2023-05-07T12:31:58;22.60;99.90
64796;DHT22;51229;51.980;6.722;2023-05-07T12:34:24;23.00;99.90
64796;DHT22;51229;51.980;6.722;2023-05-07T12:36:50;23.30;99.90
64796;DHT22;51229;51.980;6.722;2023-05-07T12:39:16;22.90;97.90
64796;DHT22;51229;51.980;6.722;2023-05-07T12:41:55;21.40;99.90
64796;DHT22;51229;51.980;6.722;2023-05-07T12:44:25;22.20;99.90
64796;DHT22;51229;51.980;6.722;2023-05-07T12:46:55;21.80;99.90
64796;DHT22;51229;51.980;6.722;2023-05-07T12:49:23;22.30;99.90
64796;DHT22;51229;51.980;6.722;2023-05-07T12:51:49;22.20;99.90
64796;DHT22;51229;51.980;6.722;2023-05-07T12:54:37;22.50;99.90
64796;DHT22;51229;51.980;6.722;2023-05-07T12:57:04;22.20;99.90
64796;DHT22;51229;51.980;6.722;2023-05-07T12:59:40;22.10;99.90
64796;DHT22;51229;51.980;6.722;2023-05-07T13:02:07;22.10;99.90
64796;DHT22;51229;51.980;6.722;2023-05-07T13:04:35;22.20;99.90
64796;DHT22;51229;51.980;6.722;2023-05-07T13:07:01;22.00;99.90
64796;DHT22;51229;51.980;6.722;2023-05-07T13:09:28;22.40;99.90
64796;DHT22;51229;51.980;6.722;2023-05-07T13:11:58;22.40;99.90
64796;DHT22;51229;51.980;6.722;2023-05-07T13:14:26;21.80;99.90
64796;DHT22;51229;51.980;6.722;2023-05-07T13:16:52;22.20;99.90
64796;DHT22;51229;51.980;6.722;2023-05-07T13:19:18;22.30;99.90
64796;DHT22;51229;51.980;6.722;2023-05-07T13:21:44;22.20;99.90
64796;DHT22;51229;51.980;6.722;2023-05-07T13:24:10;21.50;99.90
64796;DHT22;51229;51.980;6.722;2023-05-07T13:26:35;22.00;99.90
64796;DHT22;51229;51.980;6.722;2023-05-07T13:29:01;22.10;99.90
64796;DHT22;51229;51.980;6.722;2023-05-07T13:31:27;22.00;99.90
64796;DHT22;51229;51.980;6.722;2023-05-07T13:33:53;22.00;99.90
64796;DHT22;51229;51.980;6.722;2023-05-07T13:36:19;20.70;99.90
64796;DHT22;51229;51.980;6.722;2023-05-07T13:38:47;20.70;99.90
64796;DHT22;51229;51.980;6.722;2023-05-07T13:41:12;21.20;99.90
64796;DHT22;51229;51.980;6.722;2023-05-07T13:43:38;22.00;99.90
64796;DHT22;51229;51.980;6.722;2023-05-07T13:46:04;21.90;99.90
64796;DHT22;51229;51.980;6.722;2023-05-07T13:48:29;21.00;99.90
64796;DHT22;51229;51.980;6.722;2023-05-07T13:50:55;20.60;99.90
64796;DHT22;51229;51.980;6.722;2023-05-07T13:53:21;20.40;99.90
64796;DHT22;51229;51.980;6.722;2023-05-07T13:55:47;20.70;99.90
64796;DHT22;51229;51.980;6.722;2023-05-07T13:58:14;21.50;99.90
64796;DHT22;51229;51.980;6.722;2023-05-07T14:00:40;21.70;99.90
64796;DHT22;51229;51.980;6.722;2023-05-07T14:03:06;21.30;99.90
64796;DHT22;51229;51.980;6.722;2023-05-07T14:05:31;21.10;99.90
64796;DHT22;51229;51.980;6.722;2023-05-07T14:07:58;21.60;99.90
64796;DHT22;51229;51.980;6.722;2023-05-07T14:10:24;21.50;99.90
64796;DHT22;51229;51.980;6.722;2023-05-07T14:12:50;20.80;99.90
64796;DHT22;51229;51.980;6.722;2023-05-07T14:15:16;19.90;99.90
64796;DHT22;51229;51.980;6.722;2023-05-07T14:17:42;20.00;99.90
64796;DHT22;51229;51.980;6.722;2023-05-07T14:20:09;20.90;99.90
64796;DHT22;51229;51.980;6.722;2023-05-07T14:22:36;20.80;99.90
64796;DHT22;51229;51.980;6.722;2023-05-07T14:25:02;20.70;99.90
64796;DHT22;51229;51.980;6.722;2023-05-07T14:27:28;20.20;99.90
64796;DHT22;51229;51.980;6.722;2023-05-07T14:29:53;19.80;99.90
64796;DHT22;51229;51.980;6.722;2023-05-07T14:32:22;20.00;99.90
64796;DHT22;51229;51.980;6.722;2023-05-07T14:34:48;20.50;99.90
64796;DHT22;51229;51.980;6.722;2023-05-07T14:37:15;20.00;99.90
64796;DHT22;51229;51.980;6.722;2023-05-07T14:39:41;19.70;99.90
64796;DHT22;51229;51.980;6.722;2023-05-07T14:42:07;19.80;99.90
64796;DHT22;51229;51.980;6.722;2023-05-07T14:44:35;19.60;99.90
64796;DHT22;51229;51.980;6.722;2023-05-07T14:47:01;19.90;99.90
64796;DHT22;51229;51.980;6.722;2023-05-07T14:49:26;20.20;99.90
64796;DHT22;51229;51.980;6.722;2023-05-07T14:51:52;20.60;99.90
64796;DHT22;51229;51.980;6.722;2023-05-07T14:54:18;20.20;99.90
64796;DHT22;51229;51.980;6.722;2023-05-07T14:56:44;20.00;99.90
64796;DHT22;51229;51.980;6.722;2023-05-07T14:59:10;20.20;99.90
64796;DHT22;51229;51.980;6.722;2023-05-07T15:01:36;20.30;99.90
64796;DHT22;51229;51.980;6.722;2023-05-07T15:04:05;20.30;99.90
64796;DHT22;51229;51.980;6.722;2023-05-07T15:06:31;20.30;99.90
64796;DHT22;51229;51.980;6.722;2023-05-07T15:08:57;19.90;99.90
64796;DHT22;51229;51.980;6.722;2023-05-07T15:11:23;19.60;99.90
64796;DHT22;51229;51.980;6.722;2023-05-07T15:13:49;19.60;99.90
64796;DHT22;51229;51.980;6.722;2023-05-07T15:16:15;19.60;99.90
64796;DHT22;51229;51.980;6.722;2023-05-07T15:18:41;19.40;99.90
64796;DHT22;51229;51.980;6.722;2023-05-07T15:21:07;19.50;99.90
64796;DHT22;51229;51.980;6.722;2023-05-07T15:23:33;20.20;99.90
64796;DHT22;51229;51.980;6.722;2023-05-07T15:25:59;19.80;99.90
64796;DHT22;51229;51.980;6.722;2023-05-07T15:28:26;19.60;99.90
64796;DHT22;51229;51.980;6.722;2023-05-07T15:30:55;19.40;99.90
64796;DHT22;51229;51.980;6.722;2023-05-07T15:33:21;19.80;99.90
64796;DHT22;51229;51.980;6.722;2023-05-07T15:35:47;19.90;99.90
64796;DHT22;51229;51.980;6.722;2023-05-07T15:38:13;19.60;99.90
64796;DHT22;51229;51.980;6.722;2023-05-07T15:40:39;19.30;99.90
64796;DHT22;51229;51.980;6.722;2023-05-07T15:43:08;18.80;99.90
64796;DHT22;51229;51.980;6.722;2023-05-07T15:45:42;19.20;99.90